PWSweather.com
Personal Weather Stations
Station Observations
79674
AfterstegDE 79674

AfterstegDE 79674

Lat: 47.84344, Lon: 7.92844

Elevation: 809

Station Type: Davis Vantage 2 Aktive

Latest ConditionsUpdated 2:07:48 AM GMT+01:01 Sunday, Oct 22, 2017
Currently Today's Max Today's Min Today's Average
Temperature 46.4°F8.0°C 46.4°F8.0°C 45.9°F7.7°C 46.2°F7.9°C
Dew Point 43.7°F6.5°C 44.1°F6.7°C 43.7°F6.5°C 43.9°F6.6°C
Winds 6.0 mph ESE9.7 kmh ESE 6.0 mph ESE9.7 kmh ESE - 5.0 mph 8.0 kmh
Wind Gusts 2.9 mph4.7 kmh 13.0 mph20.9 kmh - -
Humidity 90% 93% 90% 91%
Pressure 30.08 in1018.6 mb 30.09 in1019.0 mb 30.07 in1018.3 mb -
Precipitation - 0.01 in0.3 mm - -
Hour Temp Dew Point Humidity Winds Wind Gusts Pressure Precip Precip Rate Daily Precip Total
02:07 AM 46.4°F8.0°C 43.7°F6.5°C 90% 6.0 mph ESE9.7 kmh ESE 2.9 mph4.7 kmh 30.08 in1018.6 mb - 0.00 in0.0 mm 0.01 in0.3 mm
02:02 AM 46.4°F8.0°C 43.9°F6.6°C 91% 6.0 mph SE9.7 kmh SE 13.0 mph20.9 kmh 30.07 in1018.3 mb - 0.00 in0.0 mm 0.01 in0.3 mm
01:57 AM 46.4°F8.0°C 43.9°F6.6°C 91% 6.0 mph S9.7 kmh S 4.9 mph7.9 kmh 30.08 in1018.6 mb - 0.00 in0.0 mm 0.01 in0.3 mm
01:52 AM 46.4°F8.0°C 43.9°F6.6°C 91% 4.9 mph SE7.9 kmh SE 2.9 mph4.7 kmh 30.08 in1018.6 mb - 0.00 in0.0 mm 0.01 in0.3 mm
01:47 AM 46.4°F8.0°C 43.9°F6.6°C 91% 6.0 mph E9.7 kmh E 2.0 mph3.2 kmh 30.08 in1018.6 mb - 0.00 in0.0 mm 0.01 in0.3 mm
01:42 AM 46.2°F7.9°C 43.7°F6.5°C 91% 4.9 mph E7.9 kmh E 0.9 mph1.4 kmh 30.08 in1018.6 mb - 0.00 in0.0 mm 0.01 in0.3 mm
01:37 AM 46.2°F7.9°C 43.7°F6.5°C 91% 4.9 mph ESE7.9 kmh ESE 4.9 mph7.9 kmh 30.08 in1018.6 mb - 0.00 in0.0 mm 0.01 in0.3 mm
01:32 AM 46.4°F8.0°C 43.9°F6.6°C 91% 4.0 mph SE6.4 kmh SE 6.0 mph9.7 kmh 30.09 in1019.0 mb - 0.00 in0.0 mm 0.01 in0.3 mm
01:27 AM 46.4°F8.0°C 43.9°F6.6°C 91% 4.0 mph SE6.4 kmh SE 6.0 mph9.7 kmh 30.08 in1018.6 mb - 0.00 in0.0 mm 0.01 in0.3 mm
01:22 AM 46.2°F7.9°C 43.7°F6.5°C 91% 6.0 mph E9.7 kmh E 2.0 mph3.2 kmh 30.08 in1018.6 mb - 0.00 in0.0 mm 0.01 in0.3 mm
01:17 AM 46.2°F7.9°C 43.7°F6.5°C 91% 6.0 mph SE9.7 kmh SE 4.9 mph7.9 kmh 30.08 in1018.6 mb - 0.00 in0.0 mm 0.01 in0.3 mm
01:12 AM 46.2°F7.9°C 43.7°F6.5°C 91% 4.9 mph E7.9 kmh E 6.0 mph9.7 kmh 30.08 in1018.6 mb - 0.00 in0.0 mm 0.01 in0.3 mm
01:07 AM 46.4°F8.0°C 43.9°F6.6°C 91% 4.9 mph SSE7.9 kmh SSE 2.9 mph4.7 kmh 30.08 in1018.6 mb - 0.00 in0.0 mm 0.01 in0.3 mm
01:02 AM 46.4°F8.0°C 43.9°F6.6°C 91% 4.0 mph SE6.4 kmh SE 4.9 mph7.9 kmh 30.08 in1018.6 mb - 0.00 in0.0 mm 0.01 in0.3 mm
12:57 AM 46.2°F7.9°C 43.7°F6.5°C 91% 4.9 mph SSE7.9 kmh SSE 2.9 mph4.7 kmh 30.09 in1019.0 mb - 0.00 in0.0 mm 0.01 in0.3 mm
12:52 AM 46.2°F7.9°C 43.7°F6.5°C 91% 4.9 mph S7.9 kmh S 4.9 mph7.9 kmh 30.09 in1019.0 mb - 0.00 in0.0 mm 0.01 in0.3 mm
12:47 AM 46.2°F7.9°C 44.1°F6.7°C 92% 4.9 mph SE7.9 kmh SE 4.9 mph7.9 kmh 30.09 in1019.0 mb - 0.00 in0.0 mm 0.01 in0.3 mm
12:42 AM 46.2°F7.9°C 44.1°F6.7°C 92% 4.9 mph SE7.9 kmh SE 4.9 mph7.9 kmh 30.09 in1019.0 mb - 0.00 in0.0 mm 0.01 in0.3 mm
12:37 AM 46.2°F7.9°C 44.1°F6.7°C 92% 4.9 mph SSE7.9 kmh SSE 4.0 mph6.4 kmh 30.09 in1019.0 mb - 0.00 in0.0 mm 0.01 in0.3 mm
12:32 AM 46.0°F7.8°C 43.9°F6.6°C 92% 4.9 mph SE7.9 kmh SE 8.9 mph14.3 kmh 30.08 in1018.6 mb - 0.00 in0.0 mm 0.01 in0.3 mm
12:27 AM 46.0°F7.8°C 43.9°F6.6°C 92% 4.9 mph ESE7.9 kmh ESE 2.0 mph3.2 kmh 30.08 in1018.6 mb - 0.00 in0.0 mm 0.01 in0.3 mm
12:22 AM 46.0°F7.8°C 43.9°F6.6°C 92% 4.0 mph S6.4 kmh S 6.0 mph9.7 kmh 30.09 in1019.0 mb - 0.00 in0.0 mm 0.01 in0.3 mm
12:17 AM 46.0°F7.8°C 43.9°F6.6°C 92% 4.0 mph SSE6.4 kmh SSE 2.0 mph3.2 kmh 30.08 in1018.6 mb - 0.00 in0.0 mm 0.01 in0.3 mm
12:12 AM 46.0°F7.8°C 44.1°F6.7°C 93% 4.9 mph SSE7.9 kmh SSE 2.0 mph3.2 kmh 30.09 in1019.0 mb - 0.00 in0.0 mm 0.01 in0.3 mm
12:07 AM 46.0°F7.8°C 43.9°F6.6°C 92% 6.0 mph SE9.7 kmh SE 4.9 mph7.9 kmh 30.08 in1018.6 mb - 0.00 in0.0 mm 0.01 in0.3 mm
12:02 AM 45.9°F7.7°C 43.9°F6.6°C 93% 4.9 mph SE7.9 kmh SE 4.0 mph6.4 kmh 30.08 in1018.6 mb - 0.00 in0.0 mm 0.01 in0.3 mm